NOAA Web Site Link Tides and Currents Home Page Transparent placeholder image

PORTS® Data Listing: 8545240 Philadelphia, PA

CO-OPS RAW PORTS DATA

************************      PRELIMINARY DATA      ************************** 

     THIS RAW DATA HAS NOT BEEN SUBJECT TO THE NATIONAL OCEAN SERVICE'S        
     QUALITY CONTROL OR QUALITY ASSURANCE PROCEDURES AND DOES NOT MEET         
     THE CRITERIA AND STANDARDS OF OFFICIAL NATIONAL OCEAN SERVICE             
     DATA.  IT IS RELEASED FOR LIMITED PUBLIC USE AS PRELIMINARY DATA TO       
     BE USED ONLY WITH APPROPRIATE CAUTION.                                    

************************      PRELIMINARY DATA      ************************** 


       CD   -   Calendar date
       T    -   Time
       TZ   -   Timezone
       PW   -   Predicted water level (feet above MLLW)
       OW   -   Observed water level (feet above MLLW)
       WS   -   Wind speed (knots)
       WD   -   Wind direction (degrees true)
       WG   -   Wind gust (knots)
       AT   -   Air temperature (degrees farenheit)
       WT   -   Water temperature (degrees farenheit)
       AP   -   Air pressure (millibars)
       SA   -   Salinty (PSU - Practical Salinity Units)
       SG   -   Specific gravity
       RH   -   Relative humidity
       AG   -   Air gap (feet)
       VI   -   Visibility (nautical miles)

       ** NOTE **
       A variable that has its data fields filled with "9"s, indicates that
       data was not collected for that sample period.
       **********


STATION NAME: Philadelphia (8545240)
****************************************************************************************************
    CD       T    TZ    PW     OW    WS   WD   WG    AT    WT    AP    SA    SG     RH    AG   VI
****************************************************************************************************
2018/06/17 07:30 EDT    5.48   5.21 -999 -999 -999  76.1  71.1 1017.9 -9.9 -9.999 -99.9 -99.99 -9.99
2018/06/17 07:36 EDT    5.38   5.09 -999 -999 -999  75.6  71.1 1017.9 -9.9 -9.999 -99.9 -99.99 -9.99
2018/06/17 07:42 EDT    5.27   4.97 -999 -999 -999  76.1  71.1 1017.9 -9.9 -9.999 -99.9 -99.99 -9.99
2018/06/17 07:48 EDT    5.17   4.86 -999 -999 -999  76.8  71.1 1017.9 -9.9 -9.999 -99.9 -99.99 -9.99
2018/06/17 07:54 EDT    5.07   4.74 -999 -999 -999  77.7  71.1 1018.0 -9.9 -9.999 -99.9 -99.99 -9.99
2018/06/17 08:00 EDT    4.96   4.63 -999 -999 -999  77.5  71.1 1018.1 -9.9 -9.999 -99.9 -99.99 -9.99
2018/06/17 08:06 EDT    4.86   4.53 -999 -999 -999  77.9  71.1 1018.2 -9.9 -9.999 -99.9 -99.99 -9.99
2018/06/17 08:12 EDT    4.75   4.42 -999 -999 -999  77.2  71.1 1018.2 -9.9 -9.999 -99.9 -99.99 -9.99
2018/06/17 08:18 EDT    4.65   4.30 -999 -999 -999  76.8  71.1 1018.4 -9.9 -9.999 -99.9 -99.99 -9.99
2018/06/17 08:24 EDT    4.54   4.20 -999 -999 -999  77.7  71.1 1018.5 -9.9 -9.999 -99.9 -99.99 -9.99
2018/06/17 08:30 EDT    4.43   4.09 -999 -999 -999  78.8  71.1 1018.4 -9.9 -9.999 -99.9 -99.99 -9.99
2018/06/17 08:36 EDT    4.32   4.00 -999 -999 -999  79.9  71.1 1018.5 -9.9 -9.999 -99.9 -99.99 -9.99
2018/06/17 08:42 EDT    4.21   3.89 -999 -999 -999  81.0  71.1 1018.4 -9.9 -9.999 -99.9 -99.99 -9.99
2018/06/17 08:48 EDT    4.10   3.78 -999 -999 -999  81.7  71.1 1018.4 -9.9 -9.999 -99.9 -99.99 -9.99
2018/06/17 08:54 EDT    3.98   3.66 -999 -999 -999  81.7  71.1 1018.4 -9.9 -9.999 -99.9 -99.99 -9.99
2018/06/17 09:00 EDT    3.87   3.55 -999 -999 -999  82.0  71.1 1018.4 -9.9 -9.999 -99.9 -99.99 -9.99
2018/06/17 09:06 EDT    3.75   3.44 -999 -999 -999  80.8  71.1 1018.4 -9.9 -9.999 -99.9 -99.99 -9.99
2018/06/17 09:12 EDT    3.63   3.33 -999 -999 -999  80.2  71.1 1018.5 -9.9 -9.999 -99.9 -99.99 -9.99
2018/06/17 09:18 EDT    3.51   3.21 -999 -999 -999  80.6  71.1 1018.4 -9.9 -9.999 -99.9 -99.99 -9.99
2018/06/17 09:24 EDT    3.39   3.10 -999 -999 -999  80.4  71.1 1018.4 -9.9 -9.999 -99.9 -99.99 -9.99
2018/06/17 09:30 EDT    3.26   2.98 -999 -999 -999  80.1  71.1 1018.4 -9.9 -9.999 -99.9 -99.99 -9.99
2018/06/17 09:36 EDT    3.13   2.87 -999 -999 -999  80.2  71.1 1018.4 -9.9 -9.999 -99.9 -99.99 -9.99
2018/06/17 09:42 EDT    3.01   2.76 -999 -999 -999  81.1  71.1 1018.4 -9.9 -9.999 -99.9 -99.99 -9.99
2018/06/17 09:48 EDT    2.87   2.65 -999 -999 -999  82.2  71.1 1018.5 -9.9 -9.999 -99.9 -99.99 -9.99
2018/06/17 09:54 EDT    2.74   2.54 -999 -999 -999  82.9  71.1 1018.6 -9.9 -9.999 -99.9 -99.99 -9.99
2018/06/17 10:00 EDT    2.60   2.43 -999 -999 -999  83.3  71.1 1018.7 -9.9 -9.999 -99.9 -99.99 -9.99
2018/06/17 10:06 EDT    2.47   2.31 -999 -999 -999  82.6  71.2 1018.7 -9.9 -9.999 -99.9 -99.99 -9.99
2018/06/17 10:12 EDT    2.33   2.21 -999 -999 -999  82.2  71.2 1018.7 -9.9 -9.999 -99.9 -99.99 -9.99
2018/06/17 10:18 EDT    2.19   2.10 -999 -999 -999  81.7  71.2 1018.6 -9.9 -9.999 -99.9 -99.99 -9.99
2018/06/17 10:24 EDT    2.04   1.99 -999 -999 -999  81.1  71.2 1018.5 -9.9 -9.999 -99.9 -99.99 -9.99
2018/06/17 10:30 EDT    1.90   1.88 -999 -999 -999  81.5  71.2 1018.6 -9.9 -9.999 -99.9 -99.99 -9.99
2018/06/17 10:36 EDT    1.76   1.77 -999 -999 -999  82.0  71.2 1018.6 -9.9 -9.999 -99.9 -99.99 -9.99
2018/06/17 10:42 EDT    1.61   1.67 -999 -999 -999  82.9  71.2 1018.6 -9.9 -9.999 -99.9 -99.99 -9.99
2018/06/17 10:48 EDT    1.47   1.57 -999 -999 -999  83.7  71.2 1018.6 -9.9 -9.999 -99.9 -99.99 -9.99
2018/06/17 10:54 EDT    1.33   1.46 -999 -999 -999  82.9  71.2 1018.6 -9.9 -9.999 -99.9 -99.99 -9.99
2018/06/17 11:00 EDT    1.19   1.36 -999 -999 -999  83.3  71.2 1018.6 -9.9 -9.999 -99.9 -99.99 -9.99
2018/06/17 11:06 EDT    1.05   1.25 -999 -999 -999  82.9  71.2 1018.7 -9.9 -9.999 -99.9 -99.99 -9.99
2018/06/17 11:12 EDT    0.92   1.16 -999 -999 -999  82.8  71.2 1018.6 -9.9 -9.999 -99.9 -99.99 -9.99
2018/06/17 11:18 EDT    0.80   1.06 -999 -999 -999  82.2  71.2 1018.6 -9.9 -9.999 -99.9 -99.99 -9.99
2018/06/17 11:24 EDT    0.68   0.97 -999 -999 -999  82.9  71.2 1018.7 -9.9 -9.999 -99.9 -99.99 -9.99
2018/06/17 11:30 EDT    0.57   0.87 -999 -999 -999  82.9  71.2 1018.7 -9.9 -9.999 -99.9 -99.99 -9.99
2018/06/17 11:36 EDT    0.47   0.78 -999 -999 -999  83.5  71.2 1018.7 -9.9 -9.999 -99.9 -99.99 -9.99
2018/06/17 11:42 EDT    0.39   0.68 -999 -999 -999  83.8  71.2 1018.6 -9.9 -9.999 -99.9 -99.99 -9.99
2018/06/17 11:48 EDT    0.31   0.58 -999 -999 -999  83.8  71.2 1018.5 -9.9 -9.999 -99.9 -99.99 -9.99
2018/06/17 11:54 EDT    0.25   0.51 -999 -999 -999  84.2  71.4 1018.6 -9.9 -9.999 -99.9 -99.99 -9.99
2018/06/17 12:00 EDT    0.20   0.44 -999 -999 -999  85.5  71.4 1018.5 -9.9 -9.999 -99.9 -99.99 -9.99
2018/06/17 12:06 EDT    0.17   0.36 -999 -999 -999  85.6  71.4 1018.5 -9.9 -9.999 -99.9 -99.99 -9.99
2018/06/17 12:12 EDT    0.16   0.29 -999 -999 -999  84.6  71.4 1018.3 -9.9 -9.999 -99.9 -99.99 -9.99
2018/06/17 12:18 EDT    0.16   0.22 -999 -999 -999  84.6  71.4 1018.3 -9.9 -9.999 -99.9 -99.99 -9.99
2018/06/17 12:24 EDT    0.19   0.15 -999 -999 -999  84.4  71.4 1018.2 -9.9 -9.999 -99.9 -99.99 -9.99
2018/06/17 12:30 EDT    0.22   0.10 -999 -999 -999  84.9  71.4 1018.2 -9.9 -9.999 -99.9 -99.99 -9.99
2018/06/17 12:36 EDT    0.28   0.07 -999 -999 -999  86.0  71.4 1018.0 -9.9 -9.999 -99.9 -99.99 -9.99
2018/06/17 12:42 EDT    0.35   0.07 -999 -999 -999  86.0  71.4 1018.0 -9.9 -9.999 -99.9 -99.99 -9.99
2018/06/17 12:48 EDT    0.44   0.10 -999 -999 -999  87.6  71.4 1017.9 -9.9 -9.999 -99.9 -99.99 -9.99
2018/06/17 12:54 EDT    0.55   0.18 -999 -999 -999  88.0  71.4 1017.9 -9.9 -9.999 -99.9 -99.99 -9.99
2018/06/17 13:00 EDT    0.67   0.34 -999 -999 -999  88.3  71.6 1017.8 -9.9 -9.999 -99.9 -99.99 -9.99
2018/06/17 13:06 EDT    0.81   0.56 -999 -999 -999  88.0  71.6 1017.8 -9.9 -9.999 -99.9 -99.99 -9.99
2018/06/17 13:12 EDT    0.95   0.83 -999 -999 -999  88.5  71.6 1017.6 -9.9 -9.999 -99.9 -99.99 -9.99
2018/06/17 13:18 EDT    1.11   1.09 -999 -999 -999  88.3  71.6 1017.5 -9.9 -9.999 -99.9 -99.99 -9.99
2018/06/17 13:24 EDT    1.28   1.36 -999 -999 -999  88.7  71.6 1017.5 -9.9 -9.999 -99.9 -99.99 -9.99
2018/06/17 13:30 EDT    1.46   1.61 -999 -999 -999  88.3  71.6 1017.4 -9.9 -9.999 -99.9 -99.99 -9.99
2018/06/17 13:36 EDT    1.64   1.85 -999 -999 -999  88.7  71.6 1017.4 -9.9 -9.999 -99.9 -99.99 -9.99
2018/06/17 13:42 EDT    1.82   2.09 -999 -999 -999  88.3  71.6 1017.3 -9.9 -9.999 -99.9 -99.99 -9.99
2018/06/17 13:48 EDT    2.01   2.33 -999 -999 -999  88.7  71.6 1017.2 -9.9 -9.999 -99.9 -99.99 -9.99
2018/06/17 13:54 EDT    2.20   2.55 -999 -999 -999  89.4  71.6 1017.2 -9.9 -9.999 -99.9 -99.99 -9.99
2018/06/17 14:00 EDT    2.39   2.75 -999 -999 -999  89.6  71.6 1017.2 -9.9 -9.999 -99.9 -99.99 -9.99
2018/06/17 14:06 EDT    2.58   2.96 -999 -999 -999  90.5  71.6 1017.2 -9.9 -9.999 -99.9 -99.99 -9.99
2018/06/17 14:12 EDT    2.76   3.15 -999 -999 -999  91.0  71.6 1017.2 -9.9 -9.999 -99.9 -99.99 -9.99
2018/06/17 14:18 EDT    2.94   3.33 -999 -999 -999  90.9  71.8 1017.3 -9.9 -9.999 -99.9 -99.99 -9.99
2018/06/17 14:24 EDT    3.12   3.50 -999 -999 -999  91.2  71.8 1017.4 -9.9 -9.999 -99.9 -99.99 -9.99
2018/06/17 14:30 EDT    3.29   3.67 -999 -999 -999  91.6  71.8 1017.4 -9.9 -9.999 -99.9 -99.99 -9.99
2018/06/17 14:36 EDT    3.46   3.82 -999 -999 -999  91.6  71.8 1017.3 -9.9 -9.999 -99.9 -99.99 -9.99
2018/06/17 14:42 EDT    3.62   3.96 -999 -999 -999  91.0  71.8 1017.3 -9.9 -9.999 -99.9 -99.99 -9.99
2018/06/17 14:48 EDT    3.77   4.10 -999 -999 -999  90.0  71.8 1017.2 -9.9 -9.999 -99.9 -99.99 -9.99
2018/06/17 14:54 EDT    3.92   4.25 -999 -999 -999  90.1  71.8 1017.3 -9.9 -9.999 -99.9 -99.99 -9.99
2018/06/17 15:00 EDT    4.06   4.38 -999 -999 -999  89.2  71.8 1017.2 -9.9 -9.999 -99.9 -99.99 -9.99
2018/06/17 15:06 EDT    4.20   4.52 -999 -999 -999  90.5  71.8 1017.2 -9.9 -9.999 -99.9 -99.99 -9.99
2018/06/17 15:12 EDT    4.33   4.65 -999 -999 -999  90.5  71.8 1017.1 -9.9 -9.999 -99.9 -99.99 -9.99
2018/06/17 15:18 EDT    4.46   4.76 -999 -999 -999  91.2  71.8 1017.1 -9.9 -9.999 -99.9 -99.99 -9.99
2018/06/17 15:24 EDT    4.59   4.89 -999 -999 -999  91.8  71.8 1017.2 -9.9 -9.999 -99.9 -99.99 -9.99
2018/06/17 15:30 EDT    4.71   5.03 -999 -999 -999  91.6  71.8 1017.1 -9.9 -9.999 -99.9 -99.99 -9.99
2018/06/17 15:36 EDT    4.83   5.16 -999 -999 -999  90.5  71.8 1017.1 -9.9 -9.999 -99.9 -99.99 -9.99
2018/06/17 15:42 EDT    4.94   5.28 -999 -999 -999  90.9  71.8 1017.1 -9.9 -9.999 -99.9 -99.99 -9.99
2018/06/17 15:48 EDT    5.05   5.39 -999 -999 -999  91.2  71.8 1017.1 -9.9 -9.999 -99.9 -99.99 -9.99
2018/06/17 15:54 EDT    5.17   5.50 -999 -999 -999  92.1  71.8 1017.0 -9.9 -9.999 -99.9 -99.99 -9.99
2018/06/17 16:00 EDT    5.27   5.61 -999 -999 -999  91.6  71.8 1016.9 -9.9 -9.999 -99.9 -99.99 -9.99
2018/06/17 16:06 EDT    5.38   5.71 -999 -999 -999  91.6  71.8 1017.0 -9.9 -9.999 -99.9 -99.99 -9.99
2018/06/17 16:12 EDT    5.48   5.80 -999 -999 -999  91.6  71.8 1016.9 -9.9 -9.999 -99.9 -99.99 -9.99
2018/06/17 16:18 EDT    5.58   5.88 -999 -999 -999  91.4  72.0 1016.9 -9.9 -9.999 -99.9 -99.99 -9.99
2018/06/17 16:24 EDT    5.68   5.96 -999 -999 -999  92.5  72.0 1016.9 -9.9 -9.999 -99.9 -99.99 -9.99
2018/06/17 16:30 EDT    5.78   6.04 -999 -999 -999  92.7  72.0 1017.0 -9.9 -9.999 -99.9 -99.99 -9.99
2018/06/17 16:36 EDT    5.87   6.11 -999 -999 -999  92.5  72.0 1016.9 -9.9 -9.999 -99.9 -99.99 -9.99
2018/06/17 16:42 EDT    5.95   6.17 -999 -999 -999  92.3  72.0 1016.8 -9.9 -9.999 -99.9 -99.99 -9.99
2018/06/17 16:48 EDT    6.03   6.25 -999 -999 -999  91.8  72.0 1016.7 -9.9 -9.999 -99.9 -99.99 -9.99
2018/06/17 16:54 EDT    6.10   6.32 -999 -999 -999  91.0  72.0 1016.8 -9.9 -9.999 -99.9 -99.99 -9.99
2018/06/17 17:00 EDT    6.17   6.39 -999 -999 -999  91.4  72.0 1016.9 -9.9 -9.999 -99.9 -99.99 -9.99
2018/06/17 17:06 EDT    6.23   6.47 -999 -999 -999  90.7  72.0 1016.8 -9.9 -9.999 -99.9 -99.99 -9.99
2018/06/17 17:12 EDT    6.28   6.55 -999 -999 -999  91.0  72.0 1016.8 -9.9 -9.999 -99.9 -99.99 -9.99
2018/06/17 17:18 EDT    6.32   6.62 -999 -999 -999  91.6  72.0 1016.8 -9.9 -9.999 -99.9 -99.99 -9.99
2018/06/17 17:24 EDT    6.35   6.68 -999 -999 -999  92.1  72.0 1016.9 -9.9 -9.999 -99.9 -99.99 -9.99
2018/06/17 17:30 EDT    6.37   6.73 -999 -999 -999  92.1  72.0 1016.8 -9.9 -9.999 -99.9 -99.99 -9.99
2018/06/17 17:36 EDT    6.38   6.76 -999 -999 -999  91.9  72.0 1016.8 -9.9 -9.999 -99.9 -99.99 -9.99
2018/06/17 17:42 EDT    6.38   6.78 -999 -999 -999  92.1  72.0 1016.7 -9.9 -9.999 -99.9 -99.99 -9.99
2018/06/17 17:48 EDT    6.38   6.78 -999 -999 -999  91.9  72.0 1016.7 -9.9 -9.999 -99.9 -99.99 -9.99
2018/06/17 17:54 EDT    6.36   6.75 -999 -999 -999  91.9  72.0 1016.6 -9.9 -9.999 -99.9 -99.99 -9.99
2018/06/17 18:00 EDT    6.33   6.71 -999 -999 -999  92.3  72.0 1016.6 -9.9 -9.999 -99.9 -99.99 -9.99
2018/06/17 18:06 EDT    6.29   6.65 -999 -999 -999  92.5  72.0 1016.7 -9.9 -9.999 -99.9 -99.99 -9.99
2018/06/17 18:12 EDT    6.25   6.59 -999 -999 -999  91.6  72.0 1016.7 -9.9 -9.999 -99.9 -99.99 -9.99
2018/06/17 18:18 EDT    6.20   6.53 -999 -999 -999  91.9  72.0 1016.7 -9.9 -9.999 -99.9 -99.99 -9.99
2018/06/17 18:24 EDT    6.14   6.45 -999 -999 -999  91.4  72.0 1016.7 -9.9 -9.999 -99.9 -99.99 -9.99
2018/06/17 18:30 EDT    6.07   6.36 -999 -999 -999  91.0  72.0 1016.6 -9.9 -9.999 -99.9 -99.99 -9.99
2018/06/17 18:36 EDT    6.00   6.25 -999 -999 -999  90.7  72.0 1016.6 -9.9 -9.999 -99.9 -99.99 -9.99
2018/06/17 18:42 EDT    5.92   6.16 -999 -999 -999  90.7  72.0 1016.6 -9.9 -9.999 -99.9 -99.99 -9.99
2018/06/17 18:48 EDT    5.84   6.06 -999 -999 -999  90.5  72.0 1016.6 -9.9 -9.999 -99.9 -99.99 -9.99
2018/06/17 18:54 EDT    5.75   5.95 -999 -999 -999  90.5  72.1 1016.7 -9.9 -9.999 -99.9 -99.99 -9.99
2018/06/17 19:00 EDT    5.66   5.82 -999 -999 -999  90.0  72.1 1016.7 -9.9 -9.999 -99.9 -99.99 -9.99
2018/06/17 19:06 EDT    5.57   5.72 -999 -999 -999  90.5  72.1 1016.6 -9.9 -9.999 -99.9 -99.99 -9.99
2018/06/17 19:12 EDT    5.48   5.59 -999 -999 -999  90.7  72.1 1016.6 -9.9 -9.999 -99.9 -99.99 -9.99
2018/06/17 19:18 EDT    5.38   5.49 -999 -999 -999  90.3  72.1 1016.7 -9.9 -9.999 -99.9 -99.99 -9.99
2018/06/17 19:24 EDT    5.29   5.38 -999 -999 -999  90.1  72.1 1016.7 -9.9 -9.999 -99.9 -99.99 -9.99
2018/06/17 19:30 EDT    5.19   5.25 -999 -999 -999  90.0  72.1 1016.8 -9.9 -9.999 -99.9 -99.99 -9.99
2018/06/17 19:36 EDT    5.09   5.14 -999 -999 -999  89.4  72.1 1016.8 -9.9 -9.999 -99.9 -99.99 -9.99
2018/06/17 19:42 EDT    4.99   5.03 -999 -999 -999  88.9  72.1 1016.8 -9.9 -9.999 -99.9 -99.99 -9.99
2018/06/17 19:48 EDT    4.90   4.92 -999 -999 -999  88.0  72.1 1016.8 -9.9 -9.999 -99.9 -99.99 -9.99
2018/06/17 19:54 EDT    4.80   4.81 -999 -999 -999  87.4  72.1 1016.8 -9.9 -9.999 -99.9 -99.99 -9.99
2018/06/17 20:00 EDT    4.70   4.70 -999 -999 -999  86.9  72.1 1016.9 -9.9 -9.999 -99.9 -99.99 -9.99
2018/06/17 20:06 EDT    4.60   4.59 -999 -999 -999  86.0  72.1 1016.9 -9.9 -9.999 -99.9 -99.99 -9.99
2018/06/17 20:12 EDT    4.50   4.49 -999 -999 -999  85.5  72.1 1016.9 -9.9 -9.999 -99.9 -99.99 -9.99
2018/06/17 20:18 EDT    4.40   4.38 -999 -999 -999  84.9  72.1 1016.9 -9.9 -9.999 -99.9 -99.99 -9.99
2018/06/17 20:24 EDT    4.30   4.27 -999 -999 -999  84.2  72.1 1016.9 -9.9 -9.999 -99.9 -99.99 -9.99
2018/06/17 20:30 EDT    4.21   4.16 -999 -999 -999  83.7  72.1 1016.9 -9.9 -9.999 -99.9 -99.99 -9.99
2018/06/17 20:36 EDT    4.10   4.05 -999 -999 -999  82.9  72.1 1017.0 -9.9 -9.999 -99.9 -99.99 -9.99
2018/06/17 20:42 EDT    4.00   3.94 -999 -999 -999  82.6  72.1 1017.1 -9.9 -9.999 -99.9 -99.99 -9.99
2018/06/17 20:48 EDT    3.90   3.83 -999 -999 -999  81.9  72.1 1017.2 -9.9 -9.999 -99.9 -99.99 -9.99
2018/06/17 20:54 EDT    3.80   3.72 -999 -999 -999  81.1  72.1 1017.3 -9.9 -9.999 -99.9 -99.99 -9.99
2018/06/17 21:00 EDT    3.70   3.62 -999 -999 -999  80.8  72.1 1017.5 -9.9 -9.999 -99.9 -99.99 -9.99
2018/06/17 21:06 EDT    3.59   3.50 -999 -999 -999  80.8  72.1 1017.6 -9.9 -9.999 -99.9 -99.99 -9.99
2018/06/17 21:12 EDT    3.49   3.40 -999 -999 -999  80.6  72.1 1017.6 -9.9 -9.999 -99.9 -99.99 -9.99
2018/06/17 21:18 EDT    3.39   3.29 -999 -999 -999  80.2  72.1 1017.6 -9.9 -9.999 -99.9 -99.99 -9.99
2018/06/17 21:24 EDT    3.28   3.18 -999 -999 -999  79.9  72.1 1017.6 -9.9 -9.999 -99.9 -99.99 -9.99
2018/06/17 21:30 EDT    3.18   3.08 -999 -999 -999  79.5  72.1 1017.7 -9.9 -9.999 -99.9 -99.99 -9.99
2018/06/17 21:36 EDT    3.07   2.97 -999 -999 -999  79.5  72.1 1017.7 -9.9 -9.999 -99.9 -99.99 -9.99
2018/06/17 21:42 EDT    2.96   2.85 -999 -999 -999  79.0  72.1 1017.7 -9.9 -9.999 -99.9 -99.99 -9.99
2018/06/17 21:48 EDT    2.86   2.74 -999 -999 -999  79.0  72.1 1017.8 -9.9 -9.999 -99.9 -99.99 -9.99
2018/06/17 21:54 EDT    2.75   2.63 -999 -999 -999  78.8  72.1 1017.9 -9.9 -9.999 -99.9 -99.99 -9.99
2018/06/17 22:00 EDT    2.64   2.51 -999 -999 -999  78.6  72.1 1018.0 -9.9 -9.999 -99.9 -99.99 -9.99
2018/06/17 22:06 EDT    2.53   2.40 -999 -999 -999  78.3  72.1 1018.0 -9.9 -9.999 -99.9 -99.99 -9.99
2018/06/17 22:12 EDT    2.42   2.29 -999 -999 -999  78.3  72.1 1018.0 -9.9 -9.999 -99.9 -99.99 -9.99
2018/06/17 22:18 EDT    2.31   2.18 -999 -999 -999  77.9  72.1 1017.9 -9.9 -9.999 -99.9 -99.99 -9.99
2018/06/17 22:24 EDT    2.20   2.06 -999 -999 -999  77.5  72.1 1017.9 -9.9 -9.999 -99.9 -99.99 -9.99
2018/06/17 22:30 EDT    2.09   1.96 -999 -999 -999  77.4  72.1 1017.9 -9.9 -9.999 -99.9 -99.99 -9.99
2018/06/17 22:36 EDT    1.98   1.85 -999 -999 -999  77.2  72.1 1017.7 -9.9 -9.999 -99.9 -99.99 -9.99
2018/06/17 22:42 EDT    1.87   1.75 -999 -999 -999  77.0  72.1 1017.7 -9.9 -9.999 -99.9 -99.99 -9.99
2018/06/17 22:48 EDT    1.76   1.65 -999 -999 -999  76.8  72.1 1017.6 -9.9 -9.999 -99.9 -99.99 -9.99
2018/06/17 22:54 EDT    1.65   1.55 -999 -999 -999  76.8  72.1 1017.7 -9.9 -9.999 -99.9 -99.99 -9.99
2018/06/17 23:00 EDT    1.54   1.43 -999 -999 -999  76.6  72.1 1018.0 -9.9 -9.999 -99.9 -99.99 -9.99
2018/06/17 23:06 EDT    1.43   1.33 -999 -999 -999  76.3  72.1 1017.9 -9.9 -9.999 -99.9 -99.99 -9.99
2018/06/17 23:12 EDT    1.33   1.23 -999 -999 -999  76.1  72.1 1017.8 -9.9 -9.999 -99.9 -99.99 -9.99
2018/06/17 23:18 EDT    1.22   1.13 -999 -999 -999  75.9  72.1 1017.8 -9.9 -9.999 -99.9 -99.99 -9.99
2018/06/17 23:24 EDT    1.12   1.04 -999 -999 -999  75.7  72.1 1017.7 -9.9 -9.999 -99.9 -99.99 -9.99
2018/06/17 23:30 EDT    1.03   0.97 -999 -999 -999  75.7  72.1 1017.8 -9.9 -9.999 -99.9 -99.99 -9.99
2018/06/17 23:36 EDT    0.94   0.85 -999 -999 -999  75.6  72.1 1017.8 -9.9 -9.999 -99.9 -99.99 -9.99
2018/06/17 23:42 EDT    0.86   0.75 -999 -999 -999  75.4  72.1 1017.9 -9.9 -9.999 -99.9 -99.99 -9.99
2018/06/17 23:48 EDT    0.78   0.68 -999 -999 -999  75.2  72.1 1017.9 -9.9 -9.999 -99.9 -99.99 -9.99
2018/06/17 23:54 EDT    0.71   0.59 -999 -999 -999  75.0  72.1 1017.9 -9.9 -9.999 -99.9 -99.99 -9.99
2018/06/18 00:00 EDT    0.66   0.51 -999 -999 -999  75.0  72.1 1017.9 -9.9 -9.999 -99.9 -99.99 -9.99
2018/06/18 00:06 EDT    0.61   0.45 -999 -999 -999  74.8  72.1 1018.0 -9.9 -9.999 -99.9 -99.99 -9.99
2018/06/18 00:12 EDT    0.58   0.38 -999 -999 -999  74.7  72.1 1017.9 -9.9 -9.999 -99.9 -99.99 -9.99
2018/06/18 00:18 EDT    0.56   0.33 -999 -999 -999  74.5  72.1 1018.0 -9.9 -9.999 -99.9 -99.99 -9.99
2018/06/18 00:24 EDT    0.56   0.31 -999 -999 -999  74.3  72.1 1018.0 -9.9 -9.999 -99.9 -99.99 -9.99
2018/06/18 00:30 EDT    0.57   0.31 -999 -999 -999  74.1  72.1 1018.0 -9.9 -9.999 -99.9 -99.99 -9.99
2018/06/18 00:36 EDT    0.60   0.35 -999 -999 -999  73.9  72.1 1018.0 -9.9 -9.999 -99.9 -99.99 -9.99
2018/06/18 00:42 EDT    0.65   0.44 -999 -999 -999  73.6  72.1 1018.0 -9.9 -9.999 -99.9 -99.99 -9.99
2018/06/18 00:48 EDT    0.71   0.61 -999 -999 -999  73.4  72.1 1018.0 -9.9 -9.999 -99.9 -99.99 -9.99
2018/06/18 00:54 EDT    0.79   0.85 -999 -999 -999  73.4  72.1 1017.8 -9.9 -9.999 -99.9 -99.99 -9.99
2018/06/18 01:00 EDT    0.88   1.12 -999 -999 -999  73.2  72.1 1017.8 -9.9 -9.999 -99.9 -99.99 -9.99
2018/06/18 01:06 EDT    1.00   1.39 -999 -999 -999  73.2  72.1 1017.8 -9.9 -9.999 -99.9 -99.99 -9.99
2018/06/18 01:12 EDT    1.12   1.63 -999 -999 -999  73.4  72.1 1017.8 -9.9 -9.999 -99.9 -99.99 -9.99
2018/06/18 01:18 EDT    1.27   1.86 -999 -999 -999  73.4  72.1 1017.8 -9.9 -9.999 -99.9 -99.99 -9.99
2018/06/18 01:24 EDT    1.43 -99.99 -999 -999 -999 -99.9 -99.9 -999.9 -9.9 -9.999 -99.9 -99.99 -9.99
2018/06/18 01:30 EDT    1.59 -99.99 -999 -999 -999 -99.9 -99.9 -999.9 -9.9 -9.999 -99.9 -99.99 -9.99
2018/06/18 01:36 EDT    1.78 -99.99 -999 -999 -999 -99.9 -99.9 -999.9 -9.9 -9.999 -99.9 -99.99 -9.99
2018/06/18 01:42 EDT    1.97 -99.99 -999 -999 -999 -99.9 -99.9 -999.9 -9.9 -9.999 -99.9 -99.99 -9.99
2018/06/18 01:48 EDT    2.17 -99.99 -999 -999 -999 -99.9 -99.9 -999.9 -9.9 -9.999 -99.9 -99.99 -9.99
2018/06/18 01:54 EDT    2.37 -99.99 -999 -999 -999 -99.9 -99.9 -999.9 -9.9 -9.999 -99.9 -99.99 -9.99
2018/06/18 02:00 EDT    2.58 -99.99 -999 -999 -999 -99.9 -99.9 -999.9 -9.9 -9.999 -99.9 -99.99 -9.99
2018/06/18 02:06 EDT    2.79 -99.99 -999 -999 -999 -99.9 -99.9 -999.9 -9.9 -9.999 -99.9 -99.99 -9.99
2018/06/18 02:12 EDT    3.01 -99.99 -999 -999 -999 -99.9 -99.9 -999.9 -9.9 -9.999 -99.9 -99.99 -9.99
2018/06/18 02:18 EDT    3.22 -99.99 -999 -999 -999 -99.9 -99.9 -999.9 -9.9 -9.999 -99.9 -99.99 -9.99
2018/06/18 02:24 EDT    3.43 -99.99 -999 -999 -999 -99.9 -99.9 -999.9 -9.9 -9.999 -99.9 -99.99 -9.99
2018/06/18 02:30 EDT    3.64 -99.99 -999 -999 -999 -99.9 -99.9 -999.9 -9.9 -9.999 -99.9 -99.99 -9.99
2018/06/18 02:36 EDT    3.84 -99.99 -999 -999 -999 -99.9 -99.9 -999.9 -9.9 -9.999 -99.9 -99.99 -9.99
2018/06/18 02:42 EDT    4.04 -99.99 -999 -999 -999 -99.9 -99.9 -999.9 -9.9 -9.999 -99.9 -99.99 -9.99
2018/06/18 02:48 EDT    4.23 -99.99 -999 -999 -999 -99.9 -99.9 -999.9 -9.9 -9.999 -99.9 -99.99 -9.99
2018/06/18 02:54 EDT    4.42 -99.99 -999 -999 -999 -99.9 -99.9 -999.9 -9.9 -9.999 -99.9 -99.99 -9.99
2018/06/18 03:00 EDT    4.59 -99.99 -999 -999 -999 -99.9 -99.9 -999.9 -9.9 -9.999 -99.9 -99.99 -9.99
2018/06/18 03:06 EDT    4.76 -99.99 -999 -999 -999 -99.9 -99.9 -999.9 -9.9 -9.999 -99.9 -99.99 -9.99
2018/06/18 03:12 EDT    4.93 -99.99 -999 -999 -999 -99.9 -99.9 -999.9 -9.9 -9.999 -99.9 -99.99 -9.99
2018/06/18 03:18 EDT    5.08 -99.99 -999 -999 -999 -99.9 -99.9 -999.9 -9.9 -9.999 -99.9 -99.99 -9.99
2018/06/18 03:24 EDT    5.23 -99.99 -999 -999 -999 -99.9 -99.9 -999.9 -9.9 -9.999 -99.9 -99.99 -9.99
2018/06/18 03:30 EDT    5.37 -99.99 -999 -999 -999 -99.9 -99.9 -999.9 -9.9 -9.999 -99.9 -99.99 -9.99
2018/06/18 03:36 EDT    5.50 -99.99 -999 -999 -999 -99.9 -99.9 -999.9 -9.9 -9.999 -99.9 -99.99 -9.99
2018/06/18 03:42 EDT    5.62 -99.99 -999 -999 -999 -99.9 -99.9 -999.9 -9.9 -9.999 -99.9 -99.99 -9.99
2018/06/18 03:48 EDT    5.75 -99.99 -999 -999 -999 -99.9 -99.9 -999.9 -9.9 -9.999 -99.9 -99.99 -9.99
2018/06/18 03:54 EDT    5.86 -99.99 -999 -999 -999 -99.9 -99.9 -999.9 -9.9 -9.999 -99.9 -99.99 -9.99
2018/06/18 04:00 EDT    5.97 -99.99 -999 -999 -999 -99.9 -99.9 -999.9 -9.9 -9.999 -99.9 -99.99 -9.99
2018/06/18 04:06 EDT    6.08 -99.99 -999 -999 -999 -99.9 -99.9 -999.9 -9.9 -9.999 -99.9 -99.99 -9.99
2018/06/18 04:12 EDT    6.18 -99.99 -999 -999 -999 -99.9 -99.9 -999.9 -9.9 -9.999 -99.9 -99.99 -9.99
2018/06/18 04:18 EDT    6.29 -99.99 -999 -999 -999 -99.9 -99.9 -999.9 -9.9 -9.999 -99.9 -99.99 -9.99
2018/06/18 04:24 EDT    6.38 -99.99 -999 -999 -999 -99.9 -99.9 -999.9 -9.9 -9.999 -99.9 -99.99 -9.99
2018/06/18 04:30 EDT    6.48 -99.99 -999 -999 -999 -99.9 -99.9 -999.9 -9.9 -9.999 -99.9 -99.99 -9.99
2018/06/18 04:36 EDT    6.57 -99.99 -999 -999 -999 -99.9 -99.9 -999.9 -9.9 -9.999 -99.9 -99.99 -9.99
2018/06/18 04:42 EDT    6.65 -99.99 -999 -999 -999 -99.9 -99.9 -999.9 -9.9 -9.999 -99.9 -99.99 -9.99
2018/06/18 04:48 EDT    6.74 -99.99 -999 -999 -999 -99.9 -99.9 -999.9 -9.9 -9.999 -99.9 -99.99 -9.99
2018/06/18 04:54 EDT    6.82 -99.99 -999 -999 -999 -99.9 -99.9 -999.9 -9.9 -9.999 -99.9 -99.99 -9.99
2018/06/18 05:00 EDT    6.89 -99.99 -999 -999 -999 -99.9 -99.9 -999.9 -9.9 -9.999 -99.9 -99.99 -9.99
2018/06/18 05:06 EDT    6.96 -99.99 -999 -999 -999 -99.9 -99.9 -999.9 -9.9 -9.999 -99.9 -99.99 -9.99
2018/06/18 05:12 EDT    7.03 -99.99 -999 -999 -999 -99.9 -99.9 -999.9 -9.9 -9.999 -99.9 -99.99 -9.99
2018/06/18 05:18 EDT    7.08 -99.99 -999 -999 -999 -99.9 -99.9 -999.9 -9.9 -9.999 -99.9 -99.99 -9.99
2018/06/18 05:24 EDT    7.14 -99.99 -999 -999 -999 -99.9 -99.9 -999.9 -9.9 -9.999 -99.9 -99.99 -9.99
2018/06/18 05:30 EDT    7.18 -99.99 -999 -999 -999 -99.9 -99.9 -999.9 -9.9 -9.999 -99.9 -99.99 -9.99
2018/06/18 05:36 EDT    7.21 -99.99 -999 -999 -999 -99.9 -99.9 -999.9 -9.9 -9.999 -99.9 -99.99 -9.99
2018/06/18 05:42 EDT    7.24 -99.99 -999 -999 -999 -99.9 -99.9 -999.9 -9.9 -9.999 -99.9 -99.99 -9.99
2018/06/18 05:48 EDT    7.26 -99.99 -999 -999 -999 -99.9 -99.9 -999.9 -9.9 -9.999 -99.9 -99.99 -9.99
2018/06/18 05:54 EDT    7.27 -99.99 -999 -999 -999 -99.9 -99.9 -999.9 -9.9 -9.999 -99.9 -99.99 -9.99
2018/06/18 06:00 EDT    7.27 -99.99 -999 -999 -999 -99.9 -99.9 -999.9 -9.9 -9.999 -99.9 -99.99 -9.99
2018/06/18 06:06 EDT    7.26 -99.99 -999 -999 -999 -99.9 -99.9 -999.9 -9.9 -9.999 -99.9 -99.99 -9.99
2018/06/18 06:12 EDT    7.24 -99.99 -999 -999 -999 -99.9 -99.9 -999.9 -9.9 -9.999 -99.9 -99.99 -9.99
2018/06/18 06:18 EDT    7.21 -99.99 -999 -999 -999 -99.9 -99.9 -999.9 -9.9 -9.999 -99.9 -99.99 -9.99
2018/06/18 06:24 EDT    7.17 -99.99 -999 -999 -999 -99.9 -99.9 -999.9 -9.9 -9.999 -99.9 -99.99 -9.99
2018/06/18 06:30 EDT    7.12 -99.99 -999 -999 -999 -99.9 -99.9 -999.9 -9.9 -9.999 -99.9 -99.99 -9.99
2018/06/18 06:36 EDT    7.07 -99.99 -999 -999 -999 -99.9 -99.9 -999.9 -9.9 -9.999 -99.9 -99.99 -9.99
2018/06/18 06:42 EDT    7.00 -99.99 -999 -999 -999 -99.9 -99.9 -999.9 -9.9 -9.999 -99.9 -99.99 -9.99
2018/06/18 06:48 EDT    6.93 -99.99 -999 -999 -999 -99.9 -99.9 -999.9 -9.9 -9.999 -99.9 -99.99 -9.99
2018/06/18 06:54 EDT    6.86 -99.99 -999 -999 -999 -99.9 -99.9 -999.9 -9.9 -9.999 -99.9 -99.99 -9.99
2018/06/18 07:00 EDT    6.78 -99.99 -999 -999 -999 -99.9 -99.9 -999.9 -9.9 -9.999 -99.9 -99.99 -9.99
2018/06/18 07:06 EDT    6.69 -99.99 -999 -999 -999 -99.9 -99.9 -999.9 -9.9 -9.999 -99.9 -99.99 -9.99
2018/06/18 07:12 EDT    6.60 -99.99 -999 -999 -999 -99.9 -99.9 -999.9 -9.9 -9.999 -99.9 -99.99 -9.99
2018/06/18 07:18 EDT    6.51 -99.99 -999 -999 -999 -99.9 -99.9 -999.9 -9.9 -9.999 -99.9 -99.99 -9.99
2018/06/18 07:24 EDT    6.42 -99.99 -999 -999 -999 -99.9 -99.9 -999.9 -9.9 -9.999 -99.9 -99.99 -9.99
2018/06/18 07:30 EDT    6.32 -99.99 -999 -999 -999 -99.9 -99.9 -999.9 -9.9 -9.999 -99.9 -99.99 -9.99

Revised: 10/15/2013
NOAA / National Ocean Service
Web site owner: Center for Operational Oceanographic Products and Services